Terminal Aerodrome Forecast
Issued by NWS Bismarck, ND

Home | Current Version | Previous Version | Text Only | Print | Product List | Glossary Off
Versions: 1 2 3 4 5 6 7 8 9 10 11 12 13 14 15 16 17 18 19 20 21 22 23 24 25 26 27 28 29 30

290
FTUS43 KBIS 251402 AAB
TAFISN
TAF AMD
KISN 251402Z 2514/2612 34004KT P6SM OVC008
      TEMPO 2514/2516 2SM BR OVC003
     FM251800 26006KT P6SM VCSH OVC010
     FM252000 23009KT P6SM -SN OVC015
     FM252200 27005KT 1 1/2SM -SN OVC015
     FM260000 34008KT 2SM -SN OVC015
     FM260200 36007KT P6SM -SN BKN030
     FM260600 VRB03KT P6SM SCT040=

USA.gov is the U.S. government's official web portal to all federal, state and local government web resources and services.